createdAt,value
2022-12-03T00:00:28.161Z,2.81
2022-12-03T00:02:54.782Z,2.77
2022-12-03T00:05:21.268Z,2.76
2022-12-03T00:07:47.708Z,2.72
2022-12-03T00:10:14.255Z,2.70
2022-12-03T00:12:40.674Z,2.72
2022-12-03T00:15:07.800Z,2.75
2022-12-03T00:17:34.172Z,2.77
2022-12-03T00:20:00.566Z,2.78
2022-12-03T00:22:26.962Z,2.80
2022-12-03T00:24:53.760Z,2.84
2022-12-03T00:27:20.359Z,2.86
2022-12-03T00:29:46.789Z,2.84
2022-12-03T00:32:14.070Z,2.82
2022-12-03T00:34:40.430Z,2.82
2022-12-03T00:37:06.890Z,2.80
2022-12-03T00:39:33.249Z,2.83
2022-12-03T00:41:59.621Z,2.83
2022-12-03T00:44:26.126Z,2.83
2022-12-03T00:46:52.514Z,2.81
2022-12-03T00:49:18.989Z,2.80
2022-12-03T00:51:45.430Z,2.77
2022-12-03T00:54:12.059Z,2.76
2022-12-03T00:56:38.476Z,2.73
2022-12-03T00:59:04.914Z,2.80
2022-12-03T01:01:31.372Z,2.85
2022-12-03T01:03:57.938Z,2.89
2022-12-03T01:06:24.305Z,2.90
2022-12-03T01:08:50.641Z,2.93
2022-12-03T01:11:40.114Z,2.96
2022-12-03T01:14:17.607Z,2.95
2022-12-03T01:16:44.410Z,2.96
2022-12-03T01:19:15.670Z,2.90
2022-12-03T01:21:43.005Z,2.77
2022-12-03T01:24:09.469Z,2.74
2022-12-03T01:26:35.956Z,2.74
2022-12-03T01:29:02.354Z,2.77
2022-12-03T01:31:47.771Z,2.75
2022-12-03T01:34:14.242Z,2.76
2022-12-03T01:36:41.027Z,2.77
2022-12-03T01:39:07.648Z,2.77
2022-12-03T01:41:35.717Z,2.82
2022-12-03T01:44:04.489Z,2.83
2022-12-03T01:46:41.841Z,2.82
2022-12-03T01:49:15.226Z,2.78
2022-12-03T01:51:41.698Z,2.79
2022-12-03T01:54:16.463Z,2.80
2022-12-03T01:56:43.237Z,2.77
2022-12-03T01:59:15.304Z,2.77
2022-12-03T02:01:41.702Z,2.84
2022-12-03T02:04:12.162Z,2.86
2022-12-03T02:06:38.719Z,2.84
2022-12-03T02:09:08.406Z,2.82
2022-12-03T02:11:43.535Z,2.85
2022-12-03T02:14:13.398Z,2.81
2022-12-03T02:16:41.915Z,2.82
2022-12-03T02:19:28.379Z,2.86
2022-12-03T02:22:05.139Z,2.91
2022-12-03T02:25:15.340Z,2.95
2022-12-03T02:27:42.461Z,2.95
2022-12-03T02:30:10.381Z,2.97
2022-12-03T02:32:37.319Z,2.97
2022-12-03T02:35:04.358Z,2.98
2022-12-03T02:37:34.851Z,3.00
2022-12-03T02:40:07.851Z,2.97
2022-12-03T02:42:37.266Z,2.94
2022-12-03T02:45:11.047Z,2.95
2022-12-03T02:48:09.235Z,2.99
2022-12-03T02:50:40.070Z,2.89
2022-12-03T02:53:09.544Z,2.89
2022-12-03T02:55:37.562Z,2.90
2022-12-03T02:58:05.003Z,2.90
2022-12-03T03:00:31.770Z,2.91
2022-12-03T03:02:58.405Z,2.94
2022-12-03T03:05:25.093Z,2.95
2022-12-03T03:07:51.884Z,2.97
2022-12-03T03:10:22.132Z,2.97
2022-12-03T03:12:49.333Z,2.96
2022-12-03T03:15:16.025Z,2.98
2022-12-03T03:17:42.818Z,2.99
2022-12-03T03:20:11.318Z,3.01
2022-12-03T03:22:41.315Z,2.96
2022-12-03T03:25:12.199Z,2.89
2022-12-03T03:27:41.163Z,2.87
2022-12-03T03:30:09.521Z,2.87
2022-12-03T03:32:37.123Z,2.88
2022-12-03T03:35:06.118Z,2.86
2022-12-03T03:37:32.673Z,2.81
2022-12-03T03:39:59.166Z,2.74
2022-12-03T03:42:25.689Z,2.69
2022-12-03T03:44:52.387Z,2.64
2022-12-03T03:47:20.052Z,2.61
2022-12-03T03:49:47.860Z,2.58
2022-12-03T03:52:14.150Z,2.54
2022-12-03T03:54:40.522Z,2.45
2022-12-03T03:57:07.268Z,2.37
2022-12-03T03:59:33.726Z,2.36
2022-12-03T04:02:00.050Z,2.37
2022-12-03T04:04:30.374Z,2.32
2022-12-03T04:06:56.881Z,2.24
2022-12-03T04:09:23.297Z,2.23
2022-12-03T04:12:08.619Z,2.15
2022-12-03T04:14:34.950Z,2.13
2022-12-03T04:17:01.312Z,2.07
2022-12-03T04:19:27.716Z,2.06
2022-12-03T04:22:12.520Z,2.06
2022-12-03T04:24:38.892Z,2.08
2022-12-03T04:27:23.681Z,1.97
2022-12-03T04:29:50.001Z,1.99
2022-12-03T04:32:35.217Z,2.02
2022-12-03T04:35:20.206Z,1.96
2022-12-03T04:37:46.605Z,2.02
2022-12-03T04:40:31.822Z,2.03
2022-12-03T04:42:58.145Z,2.00
2022-12-03T04:45:24.512Z,2.01
2022-12-03T04:47:50.849Z,1.98
2022-12-03T04:50:17.174Z,2.00
2022-12-03T04:52:43.595Z,1.99
2022-12-03T04:55:10.082Z,1.97
2022-12-03T04:57:36.462Z,2.01
2022-12-03T05:00:05.072Z,2.01
2022-12-03T05:02:31.480Z,2.02
2022-12-03T05:07:33.141Z,2.07
2022-12-03T05:09:59.530Z,2.03
2022-12-03T05:12:25.869Z,2.05
2022-12-03T05:14:52.570Z,2.08
2022-12-03T05:17:19.013Z,2.10
2022-12-03T05:20:04.219Z,2.15
2022-12-03T05:22:30.561Z,2.14
2022-12-03T05:24:57.046Z,2.14
2022-12-03T05:27:24.262Z,2.13
2022-12-03T05:29:51.132Z,2.18
2022-12-03T05:32:17.529Z,2.19
2022-12-03T05:34:43.954Z,2.20
2022-12-03T05:37:10.311Z,2.22
2022-12-03T05:39:36.845Z,2.23
2022-12-03T05:42:21.954Z,2.22
2022-12-03T05:44:48.286Z,2.24
2022-12-03T05:47:14.860Z,2.25
2022-12-03T05:49:41.378Z,2.24
2022-12-03T05:52:07.925Z,2.23
2022-12-03T05:54:34.250Z,2.23
2022-12-03T05:57:00.676Z,2.25
2022-12-03T05:59:27.161Z,2.27
2022-12-03T06:01:53.492Z,2.23
2022-12-03T06:04:19.853Z,2.26
2022-12-03T06:06:46.193Z,2.25
2022-12-03T06:09:12.506Z,2.25
2022-12-03T06:11:40.168Z,2.24
2022-12-03T06:14:06.643Z,2.21
2022-12-03T06:16:33.024Z,2.23
2022-12-03T06:18:59.457Z,2.26
2022-12-03T06:21:25.813Z,2.21
2022-12-03T06:23:52.150Z,2.25
2022-12-03T06:26:18.570Z,2.27
2022-12-03T06:28:46.390Z,2.31
2022-12-03T06:31:13.265Z,2.33
2022-12-03T06:33:39.767Z,2.35
2022-12-03T06:36:06.619Z,2.36
2022-12-03T06:38:32.975Z,2.35
2022-12-03T06:40:59.424Z,2.35
2022-12-03T06:43:40.946Z,2.33
2022-12-03T06:46:07.331Z,2.37
2022-12-03T06:48:33.677Z,2.39
2022-12-03T06:51:00.140Z,2.40
2022-12-03T06:53:26.473Z,2.38
2022-12-03T06:55:52.910Z,2.35
2022-12-03T06:58:19.234Z,2.38
2022-12-03T07:00:45.848Z,2.39
2022-12-03T07:03:12.337Z,2.36
2022-12-03T07:13:36.377Z,2.31
2022-12-03T07:18:38.039Z,2.27
2022-12-03T07:21:04.428Z,2.21
2022-12-03T07:23:30.747Z,2.26
2022-12-03T07:25:57.135Z,2.27
2022-12-03T07:28:23.449Z,2.31
2022-12-03T07:30:49.952Z,2.32
2022-12-03T07:33:16.280Z,2.34
2022-12-03T07:35:42.706Z,2.31
2022-12-03T07:38:09.035Z,2.33
2022-12-03T07:40:35.362Z,2.21
2022-12-03T07:43:01.805Z,2.28
2022-12-03T07:45:28.250Z,2.32
2022-12-03T07:47:54.598Z,2.34
2022-12-03T07:50:20.964Z,2.39
2022-12-03T07:52:47.397Z,2.45
2022-12-03T07:55:13.982Z,2.49
2022-12-03T07:57:40.365Z,2.40
2022-12-03T08:00:07.566Z,2.38
2022-12-03T08:02:34.000Z,2.31
2022-12-03T08:05:00.413Z,2.30
2022-12-03T08:07:26.767Z,2.33
2022-12-03T08:09:53.133Z,2.29
2022-12-03T08:12:42.852Z,2.33
2022-12-03T08:15:13.908Z,2.42
2022-12-03T08:17:42.197Z,2.49
2022-12-03T08:20:14.384Z,2.59
2022-12-03T08:22:42.569Z,2.64
2022-12-03T08:25:35.463Z,2.58
2022-12-03T08:28:12.048Z,2.67
2022-12-03T08:30:39.934Z,2.69
2022-12-03T08:33:13.416Z,2.74
2022-12-03T08:35:44.693Z,2.83
2022-12-03T08:38:12.847Z,2.88
2022-12-03T08:40:41.569Z,2.89
2022-12-03T08:43:26.091Z,2.86
2022-12-03T08:45:57.022Z,2.77
2022-12-03T08:48:36.674Z,2.70
2022-12-03T08:51:11.089Z,2.78
2022-12-03T08:53:42.955Z,2.78
2022-12-03T08:56:23.942Z,2.79
2022-12-03T08:59:21.174Z,2.78
2022-12-03T09:01:48.832Z,2.63
2022-12-03T09:04:27.584Z,2.66
2022-12-03T09:06:54.756Z,2.75
2022-12-03T09:09:21.929Z,2.68
2022-12-03T09:11:48.415Z,2.64
2022-12-03T09:14:18.474Z,2.66
2022-12-03T09:16:45.429Z,2.65
2022-12-03T09:19:11.872Z,2.73
2022-12-03T09:21:38.225Z,2.76
2022-12-03T09:24:04.851Z,2.82
2022-12-03T09:26:31.348Z,2.82
2022-12-03T09:28:57.725Z,2.84
2022-12-03T09:31:24.386Z,2.73
2022-12-03T09:33:51.005Z,2.81
2022-12-03T09:36:17.397Z,2.88
2022-12-03T09:38:47.704Z,2.94
2022-12-03T09:41:14.682Z,3.01
2022-12-03T09:44:03.487Z,3.02
2022-12-03T09:46:28.979Z,2.97
2022-12-03T09:48:55.462Z,3.04
2022-12-03T09:51:22.609Z,3.18
2022-12-03T09:53:49.150Z,3.25
2022-12-03T09:56:20.404Z,3.23
2022-12-03T09:58:46.925Z,3.28
2022-12-03T10:01:15.170Z,3.12
2022-12-03T10:03:48.689Z,3.23
2022-12-03T10:06:21.250Z,3.28
2022-12-03T10:08:49.985Z,3.31
2022-12-03T10:11:18.633Z,3.39
2022-12-03T10:13:46.028Z,3.36
2022-12-03T10:16:15.430Z,3.31
2022-12-03T10:18:47.141Z,3.17
2022-12-03T10:21:20.307Z,3.07
2022-12-03T10:23:50.768Z,2.91
2022-12-03T10:26:35.811Z,2.97
2022-12-03T10:29:02.150Z,2.93
2022-12-03T10:31:35.629Z,2.95
2022-12-03T10:34:01.994Z,2.99
2022-12-03T10:36:28.377Z,2.90
2022-12-03T10:39:15.808Z,3.05
2022-12-03T10:41:44.143Z,3.16
2022-12-03T10:44:25.942Z,3.21
2022-12-03T10:47:13.263Z,3.08
2022-12-03T10:49:41.571Z,3.14
2022-12-03T10:52:25.709Z,3.19
2022-12-03T10:54:52.759Z,3.23
2022-12-03T10:57:19.500Z,3.28
2022-12-03T10:59:45.875Z,3.27
2022-12-03T11:02:19.955Z,3.28
2022-12-03T11:04:46.797Z,3.25
2022-12-03T11:07:16.040Z,3.21
2022-12-03T11:09:45.310Z,3.21
2022-12-03T11:12:22.030Z,3.19
2022-12-03T11:14:54.919Z,3.14
2022-12-03T11:17:42.867Z,3.14
2022-12-03T11:20:10.346Z,3.11
2022-12-03T11:22:41.388Z,3.19
2022-12-03T11:25:26.036Z,3.35
2022-12-03T11:28:13.486Z,3.38
2022-12-03T11:30:49.141Z,3.43
2022-12-03T11:33:32.934Z,3.18
2022-12-03T11:36:08.099Z,3.21
2022-12-03T11:38:37.491Z,3.15
2022-12-03T11:41:23.782Z,3.19
2022-12-03T11:43:53.168Z,3.25
2022-12-03T11:46:36.291Z,3.35
2022-12-03T11:49:18.744Z,3.38
2022-12-03T11:51:45.251Z,3.29
2022-12-03T11:54:16.368Z,3.29
2022-12-03T11:56:48.953Z,3.19
2022-12-03T11:59:17.236Z,3.18
2022-12-03T12:01:44.470Z,3.13
2022-12-03T12:04:30.001Z,3.20
2022-12-03T12:10:48.450Z,3.30
2022-12-03T12:13:30.195Z,3.29
2022-12-03T12:16:05.074Z,3.31
2022-12-03T12:18:38.572Z,3.25
2022-12-03T12:21:43.698Z,3.16
2022-12-03T12:24:30.994Z,3.14
2022-12-03T12:27:06.135Z,3.08
2022-12-03T12:29:32.573Z,3.05
2022-12-03T12:32:15.120Z,3.11
2022-12-03T12:34:44.612Z,3.08
2022-12-03T12:37:28.145Z,3.08
2022-12-03T12:39:56.910Z,3.11
2022-12-03T12:42:34.826Z,3.14
2022-12-03T12:45:16.531Z,3.12
2022-12-03T12:47:49.903Z,3.10
2022-12-03T12:50:18.296Z,3.12
2022-12-03T12:52:51.546Z,3.19
2022-12-03T12:55:18.953Z,3.18
2022-12-03T12:57:45.359Z,3.18
2022-12-03T13:00:23.336Z,3.19
2022-12-03T13:02:55.202Z,3.23
2022-12-03T13:05:21.849Z,3.25
2022-12-03T13:07:48.369Z,3.26
2022-12-03T13:10:24.413Z,3.23
2022-12-03T13:12:50.867Z,3.24
2022-12-03T13:15:35.810Z,3.21
2022-12-03T13:18:17.870Z,3.14
2022-12-03T13:20:44.211Z,3.13
2022-12-03T13:23:25.990Z,3.14
2022-12-03T13:26:09.255Z,3.20
2022-12-03T13:28:41.714Z,3.22
2022-12-03T13:31:26.130Z,3.23
2022-12-03T13:33:53.622Z,3.17
2022-12-03T13:36:22.472Z,3.12
2022-12-03T13:38:49.280Z,3.12
2022-12-03T13:41:38.256Z,2.99
2022-12-03T13:44:17.955Z,2.91
2022-12-03T13:46:45.433Z,2.92
2022-12-03T13:49:20.011Z,2.78
2022-12-03T13:51:47.234Z,2.82
2022-12-03T13:54:20.343Z,2.80
2022-12-03T13:56:46.845Z,2.78
2022-12-03T13:59:14.120Z,2.78
2022-12-03T14:01:40.699Z,2.78
2022-12-03T14:04:07.243Z,2.78
2022-12-03T14:06:33.822Z,2.78
2022-12-03T14:09:00.378Z,2.74
2022-12-03T14:11:45.119Z,2.73
2022-12-03T14:14:11.623Z,2.81
2022-12-03T14:16:38.031Z,2.77
2022-12-03T14:19:04.569Z,2.76
2022-12-03T14:21:30.938Z,2.66
2022-12-03T14:23:57.303Z,2.69
2022-12-03T14:26:23.666Z,2.69
2022-12-03T14:28:50.128Z,2.67
2022-12-03T14:31:16.554Z,2.60
2022-12-03T14:33:43.002Z,2.62
2022-12-03T14:36:09.537Z,2.45
2022-12-03T14:38:35.882Z,2.48
2022-12-03T14:41:02.383Z,2.39
2022-12-03T14:43:28.734Z,2.39
2022-12-03T14:45:55.273Z,2.36
2022-12-03T14:48:21.739Z,2.43
2022-12-03T14:50:48.191Z,2.50
2022-12-03T14:53:14.530Z,2.50
2022-12-03T14:55:40.959Z,2.53
2022-12-03T14:58:07.283Z,2.51
2022-12-03T15:00:33.704Z,2.33
2022-12-03T15:03:00.274Z,2.37
2022-12-03T15:05:28.764Z,2.33
2022-12-03T15:07:55.493Z,2.33
2022-12-03T15:10:21.921Z,2.30
2022-12-03T15:12:48.345Z,2.20
2022-12-03T15:15:14.989Z,2.21
2022-12-03T15:17:41.888Z,2.18
2022-12-03T15:20:08.814Z,2.13
2022-12-03T15:22:35.258Z,2.09
2022-12-03T15:25:03.338Z,2.14
2022-12-03T15:27:29.810Z,2.13
2022-12-03T15:29:56.472Z,2.12
2022-12-03T15:32:23.127Z,2.18
2022-12-03T15:34:51.277Z,2.18
2022-12-03T15:37:17.714Z,2.20
2022-12-03T15:39:48.375Z,2.20
2022-12-03T15:42:15.406Z,2.15
2022-12-03T15:44:41.737Z,2.09
2022-12-03T15:47:08.174Z,2.10
2022-12-03T15:49:34.582Z,2.07
2022-12-03T15:52:00.927Z,1.97
2022-12-03T15:54:27.232Z,1.98
2022-12-03T15:56:57.290Z,1.97
2022-12-03T15:59:24.042Z,1.95
2022-12-03T16:01:50.485Z,2.04
2022-12-03T16:04:17.175Z,2.07
2022-12-03T16:06:43.489Z,2.07
2022-12-03T16:09:09.921Z,2.14
2022-12-03T16:11:36.250Z,2.17
2022-12-03T16:14:02.601Z,2.12
2022-12-03T16:16:29.147Z,2.12
2022-12-03T16:18:55.544Z,2.14
2022-12-03T16:21:26.484Z,2.21
2022-12-03T16:23:53.637Z,2.12
2022-12-03T16:26:19.940Z,2.13
2022-12-03T16:28:46.303Z,2.10
2022-12-03T16:31:12.733Z,2.11
2022-12-03T16:33:39.105Z,2.07
2022-12-03T16:36:05.617Z,2.09
2022-12-03T16:38:33.542Z,2.07
2022-12-03T16:41:01.469Z,2.11
2022-12-03T16:43:28.173Z,2.14
2022-12-03T16:46:21.051Z,2.10
2022-12-03T16:48:48.223Z,1.96
2022-12-03T16:51:15.189Z,1.99
2022-12-03T16:53:41.652Z,1.99
2022-12-03T16:56:08.827Z,1.96
2022-12-03T16:58:35.316Z,1.90
2022-12-03T17:01:01.726Z,1.97
2022-12-03T17:03:33.607Z,2.06
2022-12-03T17:06:00.795Z,2.05
2022-12-03T17:08:27.213Z,2.10
2022-12-03T17:10:53.613Z,2.09
2022-12-03T17:13:20.100Z,2.05
2022-12-03T17:15:46.504Z,2.05
2022-12-03T17:18:12.879Z,2.05
2022-12-03T17:20:39.184Z,2.04
2022-12-03T17:23:05.491Z,2.08
2022-12-03T17:25:32.025Z,2.11
2022-12-03T17:27:58.405Z,2.06
2022-12-03T17:30:24.752Z,2.11
2022-12-03T17:32:51.084Z,2.11
2022-12-03T17:35:18.383Z,2.13
2022-12-03T17:37:45.131Z,2.12
2022-12-03T17:40:14.045Z,2.01
2022-12-03T17:42:40.555Z,2.03
2022-12-03T17:45:07.620Z,2.07
2022-12-03T17:47:34.055Z,2.06
2022-12-03T17:50:00.524Z,2.04
2022-12-03T17:52:26.935Z,2.09
2022-12-03T17:55:10.760Z,2.12
2022-12-03T17:57:39.365Z,2.08
2022-12-03T18:00:06.391Z,2.09
2022-12-03T18:02:32.750Z,2.08
2022-12-03T18:04:59.336Z,2.07
2022-12-03T18:07:25.749Z,2.04
2022-12-03T18:09:53.330Z,2.08
2022-12-03T18:12:20.020Z,2.07
2022-12-03T18:14:46.370Z,2.09
2022-12-03T18:17:13.871Z,2.08
2022-12-03T18:19:40.282Z,2.05
2022-12-03T18:22:06.626Z,2.09
2022-12-03T18:24:33.331Z,2.09
2022-12-03T18:26:59.673Z,2.06
2022-12-03T18:29:26.154Z,2.03
2022-12-03T18:31:52.743Z,2.05
2022-12-03T18:34:19.143Z,2.03
2022-12-03T18:36:45.819Z,2.06
2022-12-03T18:39:22.953Z,2.11
2022-12-03T18:41:49.417Z,2.17
2022-12-03T18:44:15.856Z,2.12
2022-12-03T18:46:53.314Z,2.15
2022-12-03T18:49:20.915Z,2.17
2022-12-03T18:51:48.441Z,2.21
2022-12-03T18:54:15.405Z,2.24
2022-12-03T18:56:41.941Z,2.23
2022-12-03T18:59:09.076Z,2.23
2022-12-03T19:01:35.642Z,2.25
2022-12-03T19:04:02.128Z,2.24
2022-12-03T19:06:30.348Z,2.25
2022-12-03T19:08:56.837Z,2.22
2022-12-03T19:11:23.423Z,2.26
2022-12-03T19:13:49.898Z,2.27
2022-12-03T19:16:17.130Z,2.25
2022-12-03T19:18:44.211Z,2.25
2022-12-03T19:21:13.578Z,2.22
2022-12-03T19:23:40.031Z,2.18
2022-12-03T19:26:08.314Z,2.17
2022-12-03T19:28:35.317Z,2.21
2022-12-03T19:31:08.608Z,2.15
2022-12-03T19:33:35.575Z,2.18
2022-12-03T19:36:04.318Z,2.20
2022-12-03T19:38:31.539Z,2.13
2022-12-03T19:41:09.178Z,2.09
2022-12-03T19:43:36.803Z,2.13
2022-12-03T19:46:04.692Z,2.17
2022-12-03T19:48:32.195Z,2.19
2022-12-03T19:51:19.802Z,2.10
2022-12-03T19:53:46.048Z,2.10
2022-12-03T19:56:18.389Z,2.12
2022-12-03T19:58:46.377Z,2.06
2022-12-03T20:01:19.333Z,2.03
2022-12-03T20:03:48.073Z,2.04
2022-12-03T20:06:16.405Z,2.02
2022-12-03T20:08:43.038Z,2.04
2022-12-03T20:11:15.406Z,2.07
2022-12-03T20:13:42.889Z,2.12
2022-12-03T20:16:12.573Z,2.13
2022-12-03T20:18:40.456Z,2.09
2022-12-03T20:21:07.151Z,2.11
2022-12-03T20:23:33.734Z,2.14
2022-12-03T20:26:00.511Z,2.15
2022-12-03T20:28:28.299Z,2.08
2022-12-03T20:31:02.741Z,2.12
2022-12-03T20:33:29.268Z,2.10
2022-12-03T20:35:56.921Z,2.12
2022-12-03T20:38:26.128Z,2.17
2022-12-03T20:40:53.839Z,2.21
2022-12-03T20:43:20.519Z,2.25
2022-12-03T20:45:46.913Z,2.27
2022-12-03T20:48:13.366Z,2.27
2022-12-03T20:50:39.871Z,2.31
2022-12-03T20:53:24.194Z,2.34
2022-12-03T20:55:58.477Z,2.36
2022-12-03T20:58:25.031Z,2.39
2022-12-03T21:00:51.561Z,2.33
2022-12-03T21:03:17.999Z,2.36
2022-12-03T21:05:44.434Z,2.42
2022-12-03T21:08:11.861Z,2.42
2022-12-03T21:10:45.870Z,2.45
2022-12-03T21:13:16.797Z,2.41
2022-12-03T21:15:44.234Z,2.40
2022-12-03T21:18:13.971Z,2.34
2022-12-03T21:20:45.656Z,2.33
2022-12-03T21:23:13.202Z,2.30
2022-12-03T21:25:40.391Z,2.27
2022-12-03T21:28:08.639Z,2.28
2022-12-03T21:30:38.374Z,2.34
2022-12-03T21:33:06.044Z,2.27
2022-12-03T21:35:32.642Z,2.34
2022-12-03T21:37:59.089Z,2.40
2022-12-03T21:40:25.407Z,2.47
2022-12-03T21:42:51.768Z,2.51
2022-12-03T21:45:18.218Z,2.59
2022-12-03T21:47:48.069Z,2.62
2022-12-03T21:50:14.639Z,2.61
2022-12-03T21:52:41.183Z,2.63
2022-12-03T21:55:07.891Z,2.73
2022-12-03T21:57:37.916Z,2.74
2022-12-03T22:00:07.678Z,2.73
2022-12-03T22:02:34.368Z,2.76
2022-12-03T22:05:00.742Z,2.68
2022-12-03T22:07:27.154Z,2.68
2022-12-03T22:09:53.947Z,2.62
2022-12-03T22:12:20.532Z,2.59
2022-12-03T22:14:46.875Z,2.56
2022-12-03T22:17:13.301Z,2.56
2022-12-03T22:19:39.844Z,2.60
2022-12-03T22:22:06.174Z,2.62
2022-12-03T22:24:32.534Z,2.60
2022-12-03T22:26:58.922Z,2.57
2022-12-03T22:29:25.303Z,2.59
2022-12-03T22:31:51.694Z,2.55
2022-12-03T22:34:18.049Z,2.54
2022-12-03T22:36:44.476Z,2.58
2022-12-03T22:39:10.905Z,2.54
2022-12-03T22:41:37.259Z,2.50
2022-12-03T22:44:03.872Z,2.45
2022-12-03T22:46:30.369Z,2.38
2022-12-03T22:49:00.515Z,2.39
2022-12-03T22:51:30.251Z,2.32
2022-12-03T22:53:58.451Z,2.22
2022-12-03T22:56:26.310Z,2.18
2022-12-03T22:58:52.605Z,2.12
2022-12-03T23:01:27.956Z,2.05
2022-12-03T23:03:54.644Z,2.05
2022-12-03T23:06:22.546Z,2.08
2022-12-03T23:08:49.042Z,2.08
2022-12-03T23:11:15.615Z,2.10
2022-12-03T23:13:42.396Z,2.16
2022-12-03T23:16:14.293Z,2.25
2022-12-03T23:18:41.084Z,2.33
2022-12-03T23:21:07.768Z,2.36
2022-12-03T23:23:34.264Z,2.40
2022-12-03T23:26:02.784Z,2.41
2022-12-03T23:28:30.938Z,2.50
2022-12-03T23:30:57.666Z,2.54
2022-12-03T23:33:24.441Z,2.59
2022-12-03T23:35:51.028Z,2.60
2022-12-03T23:38:17.744Z,2.51
2022-12-03T23:40:48.069Z,2.47
2022-12-03T23:43:15.278Z,2.51
2022-12-03T23:45:41.668Z,2.50
2022-12-03T23:48:08.048Z,2.47
2022-12-03T23:50:34.855Z,2.51
2022-12-03T23:53:01.236Z,2.56
2022-12-03T23:55:27.587Z,2.53
2022-12-03T23:57:53.926Z,2.50
